Time;durP1;ratioP1;P1;durP2;ratioP2;P2;SDS_P1;SDS_P2;PMS_P1;PMS_P2;Temp;Humidity;BMP_temperature;BMP_pressure;BME280_temperature;BME280_humidity;BME280_pressure;Samples;Min_cycle;Max_cycle;Signal;HPM_P1;HPM_P2
2020/12/09 00:01:12;;;;;;;17.40;11.67;;;5.10;99.90;;;;;;5060038;28;20397;-85
2020/12/09 00:03:38;;;;;;;14.90;10.87;;;5.00;99.90;;;;;;5077456;28;20369;-83
2020/12/09 00:06:04;;;;;;;24.67;12.27;;;5.00;99.90;;;;;;5078510;28;20415;-84
2020/12/09 00:08:30;;;;;;;14.60;11.13;;;5.00;99.90;;;;;;5078916;28;20357;-84
2020/12/09 00:10:56;;;;;;;13.03;9.57;;;5.00;99.90;;;;;;5078030;28;20392;-83
2020/12/09 00:13:25;;;;;;;18.53;12.17;;;5.10;99.90;;;;;;5076900;28;20991;-83
2020/12/09 00:15:51;;;;;;;17.30;10.73;;;5.00;99.90;;;;;;5075942;28;20167;-84
2020/12/09 00:18:18;;;;;;;15.20;8.77;;;5.00;99.90;;;;;;5075628;28;20770;-84
2020/12/09 00:20:44;;;;;;;17.57;11.30;;;5.00;99.90;;;;;;5076501;28;20403;-83
2020/12/09 00:23:09;;;;;;;19.13;11.27;;;5.10;99.90;;;;;;5058365;28;20389;-83
2020/12/09 00:25:35;;;;;;;19.83;9.37;;;5.10;99.90;;;;;;5076158;28;20402;-83
2020/12/09 00:28:01;;;;;;;25.97;11.17;;;5.10;99.90;;;;;;5058794;28;20188;-83
2020/12/09 00:30:27;;;;;;;20.90;10.93;;;5.10;99.90;;;;;;5076562;28;20156;-84
2020/12/09 00:32:53;;;;;;;15.93;10.40;;;5.10;99.90;;;;;;5076746;28;20225;-84
2020/12/09 00:35:18;;;;;;;15.40;10.07;;;5.10;99.90;;;;;;5076702;28;20163;-84
2020/12/09 00:37:44;;;;;;;18.60;10.97;;;5.10;99.90;;;;;;5076621;28;20186;-84
2020/12/09 00:40:10;;;;;;;20.07;11.00;;;5.10;99.90;;;;;;5076261;28;20155;-83
2020/12/09 00:42:36;;;;;;;19.10;11.03;;;5.10;99.90;;;;;;5076679;28;20194;-84
2020/12/09 00:45:03;;;;;;;21.70;11.40;;;5.20;99.90;;;;;;5060634;28;20232;-83
2020/12/09 00:47:28;;;;;;;19.37;12.07;;;5.20;99.90;;;;;;5076876;28;20412;-83
2020/12/09 00:52:33;;;;;;;24.13;16.10;;;5.30;99.90;;;;;;5075633;28;20152;-83
2020/12/09 00:54:59;;;;;;;15.63;11.03;;;5.30;99.90;;;;;;5079219;28;20361;-83
2020/12/09 00:57:24;;;;;;;15.00;9.90;;;5.30;99.90;;;;;;5080578;28;20166;-84
2020/12/09 00:59:50;;;;;;;18.97;11.40;;;5.30;99.90;;;;;;5062165;28;20170;-84
2020/12/09 01:02:16;;;;;;;21.03;11.13;;;5.20;99.90;;;;;;5078673;28;20218;-83
2020/12/09 01:04:42;;;;;;;16.47;10.50;;;5.30;99.90;;;;;;5082993;28;20519;-85
2020/12/09 01:07:08;;;;;;;19.27;11.40;;;5.20;99.90;;;;;;5085748;28;20448;-85
2020/12/09 01:09:35;;;;;;;18.80;10.20;;;5.20;99.90;;;;;;5080829;28;20508;-85
2020/12/09 01:12:02;;;;;;;18.90;11.50;;;5.20;99.90;;;;;;5080894;28;20268;-85
2020/12/09 01:14:28;;;;;;;22.87;11.33;;;5.20;99.90;;;;;;5081665;28;20375;-84
2020/12/09 01:16:54;;;;;;;15.27;11.10;;;5.20;99.90;;;;;;5078305;28;20390;-84
2020/12/09 01:19:19;;;;;;;21.20;12.30;;;5.20;99.90;;;;;;5078117;28;20248;-84
2020/12/09 01:21:45;;;;;;;18.43;11.50;;;5.20;99.90;;;;;;5080203;28;20368;-84
2020/12/09 01:24:11;;;;;;;17.00;10.70;;;5.20;99.90;;;;;;5080491;28;20159;-85
2020/12/09 01:26:38;;;;;;;18.37;11.40;;;5.20;99.90;;;;;;5079997;28;20199;-84
2020/12/09 01:29:03;;;;;;;15.80;9.90;;;5.20;99.90;;;;;;5079561;28;20394;-84
2020/12/09 01:31:29;;;;;;;21.87;13.80;;;5.20;99.90;;;;;;5080098;28;20944;-84
2020/12/09 01:33:55;;;;;;;15.80;11.40;;;5.20;99.90;;;;;;5080232;28;20167;-83
2020/12/09 01:36:22;;;;;;;18.73;12.17;;;5.20;99.90;;;;;;5079654;28;20163;-84
2020/12/09 01:38:48;;;;;;;18.73;10.67;;;5.20;99.90;;;;;;5079575;28;20569;-83
2020/12/09 01:41:14;;;;;;;17.00;12.67;;;5.20;99.90;;;;;;5079837;28;20386;-84
2020/12/09 01:43:44;;;;;;;20.20;11.67;;;5.20;99.90;;;;;;5078233;28;20368;-85
2020/12/09 01:46:17;;;;;;;17.03;10.57;;;5.20;99.90;;;;;;5027405;28;20246;-84
2020/12/09 01:48:46;;;;;;;19.87;11.60;;;5.20;99.90;;;;;;5079275;28;20397;-84
2020/12/09 01:51:15;;;;;;;20.87;11.50;;;5.20;99.90;;;;;;5078743;28;20757;-83
2020/12/09 01:53:41;;;;;;;15.10;12.53;;;5.20;99.90;;;;;;5078196;28;20386;-82
2020/12/09 01:56:07;;;;;;;19.27;13.43;;;5.20;99.90;;;;;;5076742;28;20418;-84
2020/12/09 01:58:33;;;;;;;15.07;10.50;;;5.00;99.90;;;;;;5077316;28;20418;-84
2020/12/09 02:00:59;;;;;;;21.50;12.90;;;5.00;99.90;;;;;;5078718;28;20397;-84
2020/12/09 02:03:25;;;;;;;16.77;11.40;;;4.90;99.90;;;;;;5078358;28;20167;-83
2020/12/09 02:05:53;;;;;;;18.90;12.90;;;5.00;99.90;;;;;;5077771;28;20170;-83
2020/12/09 02:08:19;;;;;;;18.73;10.80;;;5.00;99.90;;;;;;5077484;28;20790;-83
2020/12/09 02:10:54;;;;;;;15.57;11.53;;;4.70;99.90;;;;;;5078640;28;20429;-84
2020/12/09 02:13:19;;;;;;;12.97;10.87;;;4.80;99.90;;;;;;5059522;28;20219;-84
2020/12/09 02:15:45;;;;;;;17.50;13.03;;;4.90;99.90;;;;;;5059769;28;20431;-84
2020/12/09 02:18:11;;;;;;;17.30;9.97;;;5.10;99.90;;;;;;5059086;28;20210;-84
2020/12/09 02:20:39;;;;;;;16.40;11.43;;;5.10;99.90;;;;;;5040356;28;20196;-83
2020/12/09 02:23:10;;;;;;;17.33;12.03;;;5.20;99.90;;;;;;5016289;28;20331;-83
2020/12/09 02:25:36;;;;;;;18.17;11.33;;;5.20;99.90;;;;;;5016611;28;20821;-83
2020/12/09 02:28:02;;;;;;;18.70;11.33;;;5.20;99.90;;;;;;5016593;28;20741;-84
2020/12/09 02:30:28;;;;;;;16.87;11.80;;;5.20;99.90;;;;;;5016917;28;20835;-83
2020/12/09 02:32:54;;;;;;;14.80;11.53;;;5.30;99.90;;;;;;5017042;28;20235;-84
2020/12/09 02:35:20;;;;;;;16.10;11.30;;;5.20;99.90;;;;;;5016646;28;20257;-83
2020/12/09 02:37:46;;;;;;;20.37;11.90;;;5.20;99.90;;;;;;5016859;28;20185;-84
2020/12/09 02:40:12;;;;;;;19.83;13.27;;;5.20;99.90;;;;;;5016922;28;20543;-84
2020/12/09 02:42:38;;;;;;;20.30;13.23;;;5.20;99.90;;;;;;5000240;28;20492;-84
2020/12/09 02:45:04;;;;;;;18.60;13.40;;;5.20;99.90;;;;;;5017083;28;20410;-84
2020/12/09 02:47:30;;;;;;;16.37;12.60;;;5.20;99.90;;;;;;5017212;28;20418;-84
2020/12/09 02:49:56;;;;;;;17.20;10.80;;;5.30;99.90;;;;;;5023182;28;20833;-84
2020/12/09 02:52:23;;;;;;;18.13;11.70;;;5.30;99.90;;;;;;5029336;28;20444;-85
2020/12/09 02:54:48;;;;;;;23.63;13.03;;;5.30;99.90;;;;;;5046994;28;20207;-85
2020/12/09 02:57:14;;;;;;;20.80;13.10;;;5.30;99.90;;;;;;5068052;28;20369;-82
2020/12/09 02:59:40;;;;;;;17.93;11.00;;;5.30;99.90;;;;;;5056909;28;20179;-83
2020/12/09 03:02:06;;;;;;;16.30;11.87;;;5.30;99.90;;;;;;5056596;28;20164;-84
2020/12/09 03:04:32;;;;;;;16.30;11.93;;;5.30;99.90;;;;;;5056479;28;20191;-82
2020/12/09 03:06:58;;;;;;;18.50;10.00;;;5.30;99.90;;;;;;5038539;28;20192;-82
2020/12/09 03:09:24;;;;;;;18.33;11.43;;;5.40;99.90;;;;;;5056442;28;20402;-83
2020/12/09 03:11:50;;;;;;;15.07;10.60;;;5.30;99.90;;;;;;5061921;28;20260;-82
2020/12/09 03:14:16;;;;;;;18.73;10.40;;;5.30;99.90;;;;;;5076864;28;20631;-82
2020/12/09 03:16:41;;;;;;;25.90;13.43;;;5.30;99.90;;;;;;5076636;28;20187;-83
2020/12/09 03:19:07;;;;;;;12.80;8.73;;;5.30;99.90;;;;;;5075067;28;20163;-84
2020/12/09 03:21:33;;;;;;;18.20;13.60;;;5.30;99.90;;;;;;5076393;28;20164;-83
2020/12/09 03:23:59;;;;;;;21.53;11.93;;;5.20;99.90;;;;;;5084794;28;20236;-84
2020/12/09 03:26:26;;;;;;;13.43;10.67;;;5.10;99.90;;;;;;5091202;28;20187;-84
2020/12/09 03:28:53;;;;;;;19.47;11.30;;;5.10;99.90;;;;;;5081237;28;20419;-84
2020/12/09 03:31:19;;;;;;;12.53;9.80;;;5.10;99.90;;;;;;5080043;28;20720;-84
2020/12/09 03:33:45;;;;;;;15.97;10.70;;;5.20;99.90;;;;;;5079247;28;20485;-84
2020/12/09 03:36:11;;;;;;;13.47;11.17;;;5.30;99.90;;;;;;5079630;28;20592;-84
2020/12/09 03:38:36;;;;;;;27.10;10.83;;;5.20;99.90;;;;;;5079019;28;20163;-84
2020/12/09 03:41:03;;;;;;;20.50;12.60;;;5.10;99.90;;;;;;5078216;28;20174;-84
2020/12/09 03:43:29;;;;;;;16.03;10.20;;;4.90;99.90;;;;;;5079044;28;20168;-83
2020/12/09 03:45:55;;;;;;;15.50;9.90;;;4.90;99.90;;;;;;5079809;28;20405;-84
2020/12/09 03:48:21;;;;;;;19.07;10.23;;;4.90;99.90;;;;;;5079358;28;20396;-84
2020/12/09 03:50:47;;;;;;;19.87;10.57;;;4.60;99.90;;;;;;5079131;28;20254;-84
2020/12/09 03:53:12;;;;;;;17.80;11.30;;;4.50;99.90;;;;;;5078016;28;20427;-84
2020/12/09 03:55:38;;;;;;;21.43;12.13;;;4.70;99.90;;;;;;5078792;28;20159;-84
2020/12/09 03:58:04;;;;;;;13.00;9.20;;;4.70;99.90;;;;;;5079187;28;20183;-84
2020/12/09 04:00:30;;;;;;;20.37;10.50;;;4.90;99.90;;;;;;5079674;28;20309;-84
2020/12/09 04:02:56;;;;;;;14.33;10.70;;;4.90;99.90;;;;;;5079348;28;20174;-84
2020/12/09 04:05:23;;;;;;;16.87;11.10;;;5.00;99.90;;;;;;5078580;28;20159;-84
2020/12/09 04:07:49;;;;;;;17.83;11.40;;;5.20;99.90;;;;;;5076927;28;20499;-84
2020/12/09 04:10:15;;;;;;;14.37;11.40;;;5.20;99.90;;;;;;5079193;28;20850;-84
2020/12/09 04:12:41;;;;;;;15.00;10.90;;;5.10;99.90;;;;;;5078577;28;20226;-83
2020/12/09 04:15:06;;;;;;;15.40;11.73;;;5.10;99.90;;;;;;5085366;28;20465;-84
2020/12/09 04:17:32;;;;;;;18.47;10.57;;;5.10;99.90;;;;;;5063772;28;20168;-84
2020/12/09 04:19:58;;;;;;;20.80;10.87;;;5.00;99.90;;;;;;5077852;28;20199;-84
2020/12/09 04:22:24;;;;;;;21.47;13.97;;;4.90;99.90;;;;;;5078600;28;20518;-84
2020/12/09 04:24:50;;;;;;;16.50;11.83;;;4.70;99.90;;;;;;5077703;28;20245;-84
2020/12/09 04:27:16;;;;;;;15.67;10.90;;;4.40;99.90;;;;;;5077558;28;20217;-84
2020/12/09 04:29:41;;;;;;;23.80;12.13;;;4.50;99.90;;;;;;5079753;28;20163;-84
2020/12/09 04:32:07;;;;;;;16.77;10.83;;;4.30;99.90;;;;;;5081612;28;20406;-84
2020/12/09 04:34:34;;;;;;;19.00;11.07;;;4.20;99.90;;;;;;5080084;28;20358;-82
2020/12/09 04:37:00;;;;;;;17.00;11.50;;;4.00;99.90;;;;;;5081174;28;20398;-83
2020/12/09 04:39:26;;;;;;;14.37;10.50;;;3.90;99.90;;;;;;5082216;28;20368;-84
2020/12/09 04:41:53;;;;;;;19.13;11.07;;;3.80;99.90;;;;;;5063728;28;20373;-83
2020/12/09 04:44:19;;;;;;;12.93;10.13;;;3.80;99.90;;;;;;5081252;28;20398;-84
2020/12/09 04:46:47;;;;;;;16.07;9.70;;;3.70;99.90;;;;;;5066551;28;20513;-84
2020/12/09 04:49:17;;;;;;;15.23;8.97;;;3.50;99.90;;;;;;5042973;28;20830;-84
2020/12/09 04:52:09;;;;;;;12.40;9.47;;;3.50;99.90;;;;;;5061712;28;20397;-84
2020/12/09 04:54:39;;;;;;;15.07;10.67;;;3.50;99.90;;;;;;5061402;28;20753;-83
2020/12/09 04:57:35;;;;;;;12.10;10.10;;;3.40;99.90;;;;;;5061461;28;20376;-84
2020/12/09 05:00:05;;;;;;;16.50;11.33;;;3.50;99.90;;;;;;5060694;28;20491;-83
2020/12/09 05:02:49;;;;;;;15.47;10.63;;;3.50;99.90;;;;;;5042163;28;20864;-82
2020/12/09 05:05:17;;;;;;;18.83;10.67;;;3.70;99.90;;;;;;5060902;28;20858;-83
2020/12/09 05:07:48;;;;;;;13.63;10.40;;;3.80;99.90;;;;;;5042227;28;20527;-84
2020/12/09 05:10:20;;;;;;;21.23;10.70;;;3.60;99.90;;;;;;5061530;28;20743;-83
2020/12/09 05:12:48;;;;;;;11.20;8.70;;;3.50;99.90;;;;;;5037037;28;20549;-81
2020/12/09 05:15:18;;;;;;;11.07;9.87;;;3.40;99.90;;;;;;5058771;28;20538;-84
2020/12/09 05:18:06;;;;;;;15.03;11.43;;;3.30;99.90;;;;;;5059843;28;20423;-83
2020/12/09 05:20:35;;;;;;;11.83;9.17;;;3.40;99.90;;;;;;5058532;28;20461;-83
2020/12/09 05:23:04;;;;;;;14.67;9.53;;;3.30;99.90;;;;;;5059410;28;20422;-83
2020/12/09 05:25:31;;;;;;;20.63;10.77;;;3.40;99.90;;;;;;5059602;28;20393;-84
2020/12/09 05:27:57;;;;;;;17.97;12.83;;;3.40;99.90;;;;;;5070259;28;20526;-84
2020/12/09 05:30:44;;;;;;;15.80;9.13;;;3.30;99.90;;;;;;5067037;28;20414;-84
2020/12/09 05:33:19;;;;;;;13.37;9.87;;;3.30;99.90;;;;;;5041991;28;20393;-84
2020/12/09 05:36:00;;;;;;;14.27;11.90;;;3.30;99.90;;;;;;5060174;28;20389;-84
2020/12/09 05:38:27;;;;;;;18.57;10.50;;;3.30;99.90;;;;;;5060325;28;20389;-83
2020/12/09 05:40:54;;;;;;;16.03;9.97;;;3.30;99.90;;;;;;5060270;28;20491;-84
2020/12/09 05:43:20;;;;;;;15.30;10.43;;;3.30;99.90;;;;;;5064142;28;20419;-84
2020/12/09 05:45:46;;;;;;;20.50;12.40;;;3.30;99.90;;;;;;5027184;28;20419;-84
2020/12/09 05:48:20;;;;;;;18.77;11.20;;;3.40;99.90;;;;;;5051513;28;20585;-84
2020/12/09 05:50:56;;;;;;;13.13;8.40;;;3.30;99.90;;;;;;5063451;28;20428;-84
2020/12/09 05:53:26;;;;;;;11.80;9.30;;;3.30;99.90;;;;;;5065153;28;20429;-84
2020/12/09 05:55:55;;;;;;;15.30;9.87;;;3.20;99.90;;;;;;5063504;28;20505;-83
2020/12/09 05:58:23;;;;;;;22.50;12.20;;;3.30;99.90;;;;;;5060921;28;20399;-84
2020/12/09 06:01:06;;;;;;;14.27;10.57;;;3.30;99.90;;;;;;5059992;28;20399;-84
2020/12/09 06:03:34;;;;;;;14.80;10.87;;;3.40;99.90;;;;;;5067519;28;20422;-84
2020/12/09 06:06:09;;;;;;;14.53;10.93;;;3.60;99.90;;;;;;5060274;28;20404;-83
2020/12/09 06:08:40;;;;;;;15.17;10.37;;;3.80;99.90;;;;;;5042394;28;20459;-84
2020/12/09 06:11:07;;;;;;;19.47;13.83;;;3.90;99.90;;;;;;5060660;28;20918;-84
2020/12/09 06:13:34;;;;;;;18.50;12.20;;;4.10;99.90;;;;;;5094351;28;20913;-84
2020/12/09 06:16:02;;;;;;;17.73;11.50;;;4.00;99.90;;;;;;5062264;28;20760;-84
2020/12/09 06:18:30;;;;;;;35.07;13.37;;;4.10;99.90;;;;;;5064864;28;20426;-84
2020/12/09 06:20:57;;;;;;;20.43;11.57;;;4.30;99.90;;;;;;5083244;28;20928;-83
2020/12/09 06:23:23;;;;;;;20.87;13.60;;;4.40;99.90;;;;;;5100086;28;20444;-83
2020/12/09 06:25:49;;;;;;;19.73;13.97;;;4.50;99.90;;;;;;5082200;28;20368;-84
2020/12/09 06:28:17;;;;;;;18.10;10.77;;;4.50;99.90;;;;;;5081883;28;20445;-84
2020/12/09 06:30:43;;;;;;;22.03;12.83;;;4.50;99.90;;;;;;5079325;28;20450;-84
2020/12/09 06:33:09;;;;;;;15.73;9.80;;;4.40;99.90;;;;;;5089837;28;20788;-84
2020/12/09 06:35:35;;;;;;;22.80;12.93;;;4.50;99.90;;;;;;5066066;28;20172;-84
2020/12/09 06:38:15;;;;;;;24.33;11.67;;;4.50;99.90;;;;;;5082421;28;20488;-84
2020/12/09 06:41:08;;;;;;;18.37;12.17;;;4.50;99.90;;;;;;5084247;28;20397;-83
2020/12/09 06:43:34;;;;;;;15.67;12.30;;;4.20;99.90;;;;;;5054926;28;20425;-84
2020/12/09 06:46:00;;;;;;;15.30;10.27;;;4.00;99.90;;;;;;5091856;28;20398;-84
2020/12/09 06:48:36;;;;;;;16.07;10.60;;;3.90;99.90;;;;;;5092604;28;20270;-84
2020/12/09 06:51:21;;;;;;;14.77;11.20;;;3.90;99.90;;;;;;5095015;28;20163;-84
2020/12/09 06:54:11;;;;;;;18.77;11.63;;;3.90;99.90;;;;;;5094253;28;20430;-85
2020/12/09 06:56:37;;;;;;;14.80;9.80;;;3.60;99.90;;;;;;5078899;28;20401;-83
2020/12/09 06:59:26;;;;;;;12.87;9.17;;;3.60;99.90;;;;;;5077913;28;20498;-85
2020/12/09 07:02:00;;;;;;;20.90;11.83;;;3.70;99.90;;;;;;5079054;28;20175;-85
2020/12/09 07:04:59;;;;;;;16.10;11.43;;;3.90;99.90;;;;;;5074169;28;20528;-85
2020/12/09 07:07:34;;;;;;;19.67;11.83;;;3.90;99.90;;;;;;5060349;28;20447;-83
2020/12/09 07:10:03;;;;;;;14.43;10.63;;;4.00;99.90;;;;;;5075179;28;20409;-84
2020/12/09 07:12:29;;;;;;;16.13;10.63;;;3.90;99.90;;;;;;5063548;28;20514;-84
2020/12/09 07:14:58;;;;;;;14.27;11.80;;;3.80;99.90;;;;;;5055980;28;20407;-82
2020/12/09 07:17:26;;;;;;;14.40;11.50;;;4.00;99.90;;;;;;5056925;28;20195;-84
2020/12/09 07:19:52;;;;;;;23.60;11.47;;;4.10;99.90;;;;;;5054959;28;20565;-84
2020/12/09 07:22:19;;;;;;;22.60;11.37;;;4.00;99.90;;;;;;5050337;28;20421;-82
2020/12/09 07:24:45;;;;;;;18.27;11.70;;;4.00;99.90;;;;;;5052437;28;20405;-84
2020/12/09 07:27:12;;;;;;;19.10;12.30;;;4.00;99.90;;;;;;5057391;28;20428;-84
2020/12/09 07:29:40;;;;;;;18.70;12.90;;;3.90;99.90;;;;;;5055939;28;20393;-84
2020/12/09 07:32:08;;;;;;;17.33;9.93;;;3.80;99.90;;;;;;5052237;28;20472;-83
2020/12/09 07:34:35;;;;;;;15.37;11.77;;;3.80;99.90;;;;;;5034869;28;20431;-83
2020/12/09 07:37:00;;;;;;;19.40;13.37;;;4.00;99.90;;;;;;5054425;28;20400;-85
2020/12/09 07:39:33;;;;;;;19.40;12.40;;;4.30;99.90;;;;;;5036528;28;20438;-84
2020/12/09 07:42:01;;;;;;;16.00;10.87;;;4.30;99.90;;;;;;5034560;28;20202;-84
2020/12/09 07:44:28;;;;;;;12.90;10.60;;;4.00;99.90;;;;;;5037717;28;20426;-82
2020/12/09 07:46:58;;;;;;;20.97;11.13;;;4.00;99.90;;;;;;5033072;28;20508;-83
2020/12/09 07:49:25;;;;;;;17.67;11.70;;;4.00;99.90;;;;;;5020007;28;20410;-82
2020/12/09 07:51:53;;;;;;;16.33;11.17;;;3.90;99.90;;;;;;5025625;28;20441;-82
2020/12/09 07:54:20;;;;;;;26.27;12.00;;;3.80;99.90;;;;;;5031219;28;20408;-84
2020/12/09 07:56:47;;;;;;;17.87;11.80;;;3.90;99.90;;;;;;5050323;28;20515;-81
2020/12/09 07:59:15;;;;;;;14.37;10.23;;;4.00;99.90;;;;;;5054140;28;20818;-80
2020/12/09 08:01:41;;;;;;;20.70;14.27;;;4.10;99.90;;;;;;5030050;28;20445;-80
2020/12/09 08:04:10;;;;;;;18.53;11.57;;;4.00;99.90;;;;;;5002504;28;20438;-80
2020/12/09 08:06:38;;;;;;;23.17;14.77;;;3.80;99.90;;;;;;5026059;28;20831;-81
2020/12/09 08:09:20;;;;;;;20.00;11.33;;;3.90;99.90;;;;;;5045360;28;20502;-82
2020/12/09 08:11:45;;;;;;;14.80;11.33;;;4.00;99.90;;;;;;5031869;28;20529;-81
2020/12/09 08:14:14;;;;;;;14.90;11.43;;;4.10;99.90;;;;;;5074133;28;21165;-80
2020/12/09 08:16:41;;;;;;;21.43;12.70;;;4.20;99.90;;;;;;5043744;28;20182;-82
2020/12/09 08:19:09;;;;;;;20.77;10.93;;;4.10;99.90;;;;;;5019009;28;20431;-79
2020/12/09 08:21:35;;;;;;;19.23;12.30;;;4.10;99.90;;;;;;4988621;28;20457;-82
2020/12/09 08:24:16;;;;;;;15.67;11.50;;;4.40;99.90;;;;;;5014084;28;20443;-83
2020/12/09 08:26:43;;;;;;;21.47;12.07;;;4.60;99.90;;;;;;5020501;28;20661;-82
2020/12/09 08:29:16;;;;;;;16.93;10.37;;;4.70;99.90;;;;;;5028612;28;20443;-82
2020/12/09 08:31:42;;;;;;;20.77;12.10;;;4.70;99.90;;;;;;5029570;28;20915;-82
2020/12/09 08:34:15;;;;;;;17.00;12.67;;;4.90;99.90;;;;;;5033451;28;20497;-82
2020/12/09 08:36:41;;;;;;;16.83;11.07;;;4.90;99.90;;;;;;5033771;28;20231;-81
2020/12/09 08:39:07;;;;;;;14.67;11.60;;;5.00;99.90;;;;;;5031992;28;20442;-82
2020/12/09 08:41:35;;;;;;;14.60;9.80;;;4.90;99.90;;;;;;5031862;28;20670;-80
2020/12/09 08:44:04;;;;;;;16.63;10.70;;;4.80;99.90;;;;;;5032132;28;20196;-82
2020/12/09 08:46:31;;;;;;;19.70;12.57;;;4.80;99.90;;;;;;5039270;28;20440;-82
2020/12/09 08:48:57;;;;;;;15.43;10.90;;;5.00;99.90;;;;;;5035517;28;20429;-82
2020/12/09 08:51:27;;;;;;;15.80;12.43;;;5.20;99.90;;;;;;5064489;28;20413;-82
2020/12/09 08:53:53;;;;;;;12.60;10.30;;;5.30;99.90;;;;;;5054885;28;20454;-80
2020/12/09 08:56:28;;;;;;;21.90;10.97;;;5.30;99.90;;;;;;5074029;28;20473;-82
2020/12/09 08:58:54;;;;;;;15.53;12.10;;;5.40;99.90;;;;;;5066788;28;20483;-82
2020/12/09 09:01:20;;;;;;;16.83;10.67;;;5.40;99.90;;;;;;5074860;28;20546;-81
2020/12/09 09:03:47;;;;;;;16.60;10.10;;;5.40;99.90;;;;;;5035065;28;20408;-82
2020/12/09 09:06:13;;;;;;;13.50;9.53;;;5.30;99.90;;;;;;5072385;28;20663;-82
2020/12/09 09:08:39;;;;;;;14.77;11.53;;;5.30;99.90;;;;;;5075400;28;20418;-82
2020/12/09 09:11:05;;;;;;;16.50;11.43;;;5.30;99.90;;;;;;5043868;28;20575;-81
2020/12/09 09:13:31;;;;;;;14.30;10.63;;;5.20;99.90;;;;;;5073388;28;20778;-82
2020/12/09 09:15:57;;;;;;;21.90;12.27;;;5.20;99.90;;;;;;5070953;28;20419;-81
2020/12/09 09:18:23;;;;;;;14.67;10.63;;;5.30;99.90;;;;;;5056655;28;20190;-82
2020/12/09 09:20:51;;;;;;;18.57;10.40;;;5.30;99.90;;;;;;5070900;28;20412;-81
2020/12/09 09:23:16;;;;;;;13.87;11.50;;;5.30;99.90;;;;;;5056719;28;20183;-82
2020/12/09 09:25:42;;;;;;;11.60;9.13;;;5.30;99.90;;;;;;5037919;28;20474;-81
2020/12/09 09:28:08;;;;;;;20.07;10.57;;;5.30;99.90;;;;;;5025004;28;20569;-83
2020/12/09 09:30:34;;;;;;;15.37;9.60;;;5.30;99.90;;;;;;5054156;28;20412;-83
2020/12/09 09:33:00;;;;;;;26.27;12.03;;;5.30;99.90;;;;;;5073249;28;21063;-83
2020/12/09 09:35:26;;;;;;;17.10;10.10;;;5.30;99.90;;;;;;5071956;28;20221;-82
2020/12/09 09:37:52;;;;;;;17.73;9.97;;;5.30;99.90;;;;;;5043567;28;20174;-81
2020/12/09 09:40:17;;;;;;;15.80;11.23;;;5.30;99.90;;;;;;5056274;28;20943;-82
2020/12/09 09:42:47;;;;;;;14.20;10.90;;;5.30;99.90;;;;;;5041375;28;20182;-83
2020/12/09 09:45:13;;;;;;;12.53;9.70;;;5.30;99.90;;;;;;5071004;28;20298;-81
2020/12/09 09:47:39;;;;;;;20.93;12.87;;;5.20;99.90;;;;;;5053727;28;20447;-82
2020/12/09 09:50:07;;;;;;;16.43;11.00;;;5.30;99.90;;;;;;5078348;28;21360;-83
2020/12/09 09:52:34;;;;;;;18.47;11.57;;;5.30;99.90;;;;;;5067980;28;20212;-82
2020/12/09 09:55:00;;;;;;;21.73;12.53;;;5.40;99.90;;;;;;5071413;28;20437;-83
2020/12/09 09:57:25;;;;;;;26.63;12.80;;;5.40;99.90;;;;;;5091374;28;20403;-83
2020/12/09 09:59:53;;;;;;;21.53;10.90;;;5.40;99.90;;;;;;5090089;28;20182;-84
2020/12/09 10:02:19;;;;;;;18.10;13.00;;;5.40;99.90;;;;;;5093641;28;20175;-83
2020/12/09 10:04:48;;;;;;;21.50;12.33;;;5.40;99.90;;;;;;5078592;28;20421;-82
2020/12/09 10:07:28;;;;;;;17.90;12.83;;;5.40;99.90;;;;;;5070944;28;20257;-82
2020/12/09 10:09:54;;;;;;;15.20;10.80;;;5.20;99.90;;;;;;5022625;28;20509;-81
2020/12/09 10:12:19;;;;;;;15.83;11.30;;;5.20;99.90;;;;;;5031801;28;20581;-82
2020/12/09 10:14:45;;;;;;;17.77;11.30;;;5.20;99.90;;;;;;5015211;28;20196;-81
2020/12/09 10:17:11;;;;;;;16.50;11.20;;;4.80;99.90;;;;;;5020835;28;20198;-82
2020/12/09 10:19:36;;;;;;;16.07;11.67;;;5.00;99.90;;;;;;5015981;28;20265;-81
2020/12/09 10:22:02;;;;;;;24.07;13.63;;;5.10;99.90;;;;;;5035552;28;20180;-80
2020/12/09 10:24:28;;;;;;;16.70;10.67;;;5.20;99.90;;;;;;5034030;28;20212;-82
2020/12/09 10:26:54;;;;;;;14.70;11.07;;;5.20;99.90;;;;;;5030230;28;20222;-83
2020/12/09 10:29:21;;;;;;;23.63;11.73;;;5.30;99.90;;;;;;5033083;28;20406;-82
2020/12/09 10:31:48;;;;;;;15.70;10.60;;;5.30;99.90;;;;;;5015022;28;20435;-82
2020/12/09 10:34:18;;;;;;;17.33;12.63;;;5.30;99.90;;;;;;4998565;28;20458;-82
2020/12/09 10:36:48;;;;;;;21.73;12.43;;;5.30;99.90;;;;;;5015773;28;20420;-82
2020/12/09 10:39:18;;;;;;;16.13;10.37;;;5.20;99.90;;;;;;4999925;28;20578;-82
2020/12/09 10:41:45;;;;;;;20.07;13.13;;;5.20;99.90;;;;;;5046886;28;20451;-82
2020/12/09 10:44:11;;;;;;;18.07;11.53;;;5.30;99.90;;;;;;5012496;28;20430;-82
2020/12/09 10:46:41;;;;;;;15.70;12.10;;;5.30;99.90;;;;;;5015348;28;20573;-83
2020/12/09 10:49:09;;;;;;;29.50;16.87;;;5.30;99.90;;;;;;5015245;28;20514;-81
2020/12/09 10:51:46;;;;;;;29.13;14.10;;;5.30;99.90;;;;;;5032581;28;20500;-83
2020/12/09 10:54:12;;;;;;;18.80;12.30;;;5.40;99.90;;;;;;5031014;28;20413;-81
2020/12/09 10:56:38;;;;;;;21.30;12.73;;;5.30;99.90;;;;;;5032303;28;20417;-81
2020/12/09 10:59:07;;;;;;;16.60;12.33;;;5.30;99.90;;;;;;4990440;28;20513;-82
2020/12/09 11:01:33;;;;;;;18.93;11.67;;;5.20;99.90;;;;;;4993643;28;20904;-82
2020/12/09 11:04:00;;;;;;;15.03;12.23;;;5.20;99.90;;;;;;4992036;28;20468;-83
2020/12/09 11:06:28;;;;;;;19.30;13.23;;;5.20;99.90;;;;;;4993968;28;20297;-82
2020/12/09 11:08:55;;;;;;;22.20;12.53;;;5.20;99.90;;;;;;4993348;28;20514;-82
2020/12/09 11:11:22;;;;;;;22.40;12.90;;;5.20;99.90;;;;;;4992596;28;20429;-82
2020/12/09 11:13:48;;;;;;;15.80;9.77;;;5.20;99.90;;;;;;4967300;28;20532;-82
2020/12/09 11:16:14;;;;;;;17.20;12.47;;;5.20;99.90;;;;;;4979294;28;20912;-80
2020/12/09 11:18:42;;;;;;;20.50;12.20;;;5.20;99.90;;;;;;4996780;28;20466;-81
2020/12/09 11:21:08;;;;;;;13.00;10.30;;;5.10;99.90;;;;;;5012726;28;20449;-82
2020/12/09 11:23:37;;;;;;;17.73;12.40;;;5.10;99.90;;;;;;5012595;28;20434;-82
2020/12/09 11:26:07;;;;;;;19.03;11.80;;;5.10;99.90;;;;;;5000109;28;20583;-81
2020/12/09 11:28:33;;;;;;;15.90;10.60;;;5.10;99.90;;;;;;5018867;28;20448;-81
2020/12/09 11:30:58;;;;;;;21.97;12.87;;;5.20;99.90;;;;;;5045770;28;20755;-82
2020/12/09 11:33:24;;;;;;;15.07;11.40;;;5.20;99.90;;;;;;5055650;28;20196;-82
2020/12/09 11:35:50;;;;;;;15.87;12.03;;;5.20;99.90;;;;;;5049400;28;20968;-82
2020/12/09 11:38:16;;;;;;;29.90;15.57;;;5.20;99.90;;;;;;5040103;28;20180;-82
2020/12/09 11:40:43;;;;;;;18.23;10.60;;;5.20;99.90;;;;;;5055135;28;20194;-83
2020/12/09 11:43:12;;;;;;;19.73;12.23;;;5.30;99.90;;;;;;5030993;28;20572;-81
2020/12/09 11:45:38;;;;;;;20.57;11.33;;;5.30;99.90;;;;;;5019522;28;20836;-80
2020/12/09 11:48:04;;;;;;;17.47;10.83;;;5.30;99.90;;;;;;5041473;28;20443;-82
2020/12/09 11:50:30;;;;;;;26.70;13.20;;;5.30;99.90;;;;;;5033209;28;20465;-80
2020/12/09 11:52:55;;;;;;;14.67;11.47;;;5.30;99.90;;;;;;5055542;28;20214;-84
2020/12/09 11:55:21;;;;;;;14.33;11.30;;;5.30;99.90;;;;;;5056093;28;20188;-83
2020/12/09 11:57:51;;;;;;;15.40;11.37;;;5.30;99.90;;;;;;5059270;28;20206;-81
2020/12/09 12:00:17;;;;;;;24.17;12.10;;;5.30;99.90;;;;;;5053139;28;20262;-82
2020/12/09 12:02:43;;;;;;;16.90;13.07;;;5.30;99.90;;;;;;5023542;28;20807;-80
2020/12/09 12:05:10;;;;;;;20.73;13.13;;;5.30;99.90;;;;;;5043360;28;20192;-84
2020/12/09 12:07:37;;;;;;;28.83;11.30;;;5.30;99.90;;;;;;5046500;28;20473;-84
2020/12/09 12:10:05;;;;;;;19.87;12.57;;;5.30;99.90;;;;;;5018676;28;20420;-81
2020/12/09 12:12:31;;;;;;;18.03;10.97;;;5.30;99.90;;;;;;5049699;28;20932;-81
2020/12/09 12:15:01;;;;;;;16.37;9.60;;;5.30;99.90;;;;;;5051307;28;20438;-79
2020/12/09 12:17:28;;;;;;;18.97;11.00;;;5.30;99.90;;;;;;5000070;28;20447;-81
2020/12/09 12:19:53;;;;;;;18.73;11.00;;;5.30;99.90;;;;;;5004298;28;20464;-80
2020/12/09 12:22:26;;;;;;;16.47;11.47;;;5.20;99.90;;;;;;4960024;29;20435;-81
2020/12/09 12:24:52;;;;;;;17.30;11.10;;;5.30;99.90;;;;;;4937278;29;20435;-81
2020/12/09 12:27:20;;;;;;;12.13;9.97;;;5.30;99.90;;;;;;4929831;29;20477;-80
2020/12/09 12:29:46;;;;;;;15.90;10.20;;;5.20;99.90;;;;;;4962380;28;20421;-80
2020/12/09 12:32:15;;;;;;;17.63;11.87;;;5.30;99.90;;;;;;4909212;29;20418;-80
2020/12/09 12:34:40;;;;;;;18.30;13.23;;;5.30;99.90;;;;;;4902220;29;20208;-81
2020/12/09 12:37:06;;;;;;;18.00;13.10;;;5.30;99.90;;;;;;4858986;29;20418;-80
2020/12/09 12:39:39;;;;;;;19.40;10.60;;;5.30;99.90;;;;;;4844206;29;20201;-82
2020/12/09 12:42:07;;;;;;;19.07;11.40;;;5.30;99.90;;;;;;4832880;29;20458;-82
2020/12/09 12:44:36;;;;;;;14.83;10.30;;;5.30;99.90;;;;;;4830704;29;20514;-82